createdAt,value
2022-11-05T00:02:08.741Z,41.10
2022-11-05T00:04:58.266Z,38.90
2022-11-05T00:07:54.031Z,37.10
2022-11-05T00:10:29.611Z,40.40
2022-11-05T00:13:19.627Z,40.20
2022-11-05T00:16:08.567Z,35.00
2022-11-05T00:18:40.593Z,36.20
2022-11-05T00:21:26.433Z,33.90
2022-11-05T00:24:18.164Z,38.60
2022-11-05T00:26:52.199Z,37.50
2022-11-05T00:29:26.015Z,38.10
2022-11-05T00:31:57.757Z,40.90
2022-11-05T00:34:29.566Z,40.90
2022-11-05T00:37:01.336Z,37.70
2022-11-05T00:39:33.064Z,37.40
2022-11-05T00:42:22.790Z,37.40
2022-11-05T00:45:01.973Z,37.90
2022-11-05T00:47:52.521Z,37.10
2022-11-05T00:50:24.838Z,38.40
2022-11-05T00:52:59.609Z,36.30
2022-11-05T00:55:34.715Z,35.60
2022-11-05T00:58:08.382Z,37.20
2022-11-05T01:00:42.386Z,36.40
2022-11-05T01:03:15.945Z,37.60
2022-11-05T01:05:49.741Z,37.20
2022-11-05T01:08:23.207Z,36.10
2022-11-05T01:10:56.467Z,38.10
2022-11-05T01:13:30.963Z,38.50
2022-11-05T01:16:09.315Z,35.70
2022-11-05T01:18:41.259Z,33.70
2022-11-05T01:21:16.931Z,39.40
2022-11-05T01:23:48.728Z,37.60
2022-11-05T01:26:20.620Z,35.90
2022-11-05T01:28:54.551Z,36.50
2022-11-05T01:31:27.031Z,36.70
2022-11-05T01:34:01.103Z,38.10
2022-11-05T01:36:33.453Z,40.50
2022-11-05T01:39:06.447Z,39.20
2022-11-05T01:41:38.187Z,34.20
2022-11-05T01:44:40.423Z,34.10
2022-11-05T01:47:21.359Z,37.70
2022-11-05T01:49:53.330Z,33.30
2022-11-05T01:52:28.029Z,35.80
2022-11-05T01:55:00.056Z,38.20
2022-11-05T01:57:34.008Z,32.10
2022-11-05T02:00:06.790Z,38.10
2022-11-05T02:02:45.516Z,33.20
2022-11-05T02:05:18.187Z,35.60
2022-11-05T02:07:50.743Z,33.90
2022-11-05T02:10:24.197Z,36.70
2022-11-05T02:12:56.797Z,37.50
2022-11-05T02:15:38.635Z,37.20
2022-11-05T02:18:21.345Z,35.60
2022-11-05T02:21:04.249Z,39.40
2022-11-05T02:24:03.721Z,35.40
2022-11-05T02:27:05.801Z,32.70
2022-11-05T02:30:04.273Z,34.60
2022-11-05T02:32:59.064Z,31.90
2022-11-05T02:35:47.390Z,34.40
2022-11-05T02:38:34.662Z,33.10
2022-11-05T02:41:12.622Z,34.10
2022-11-05T02:43:56.282Z,34.20
2022-11-05T02:46:41.874Z,34.00
2022-11-05T02:49:27.486Z,37.20
2022-11-05T02:52:02.630Z,32.90
2022-11-05T02:54:41.038Z,32.50
2022-11-05T02:57:13.028Z,35.60
2022-11-05T02:59:44.719Z,35.80
2022-11-05T03:02:17.271Z,35.50
2022-11-05T03:04:49.204Z,36.30
2022-11-05T03:07:37.206Z,33.10
2022-11-05T03:10:23.885Z,34.00
2022-11-05T03:13:05.561Z,36.20
2022-11-05T03:15:55.687Z,32.60
2022-11-05T03:18:34.613Z,32.10
2022-11-05T03:21:11.008Z,34.10
2022-11-05T03:23:50.575Z,36.70
2022-11-05T03:26:28.041Z,34.80
2022-11-05T03:29:06.709Z,35.20
2022-11-05T03:31:40.497Z,33.10
2022-11-05T03:34:13.829Z,35.20
2022-11-05T03:36:49.788Z,36.60
2022-11-05T03:39:24.506Z,34.80
2022-11-05T03:41:58.314Z,35.30
2022-11-05T03:44:37.583Z,32.10
2022-11-05T03:47:14.891Z,35.00
2022-11-05T03:49:56.816Z,34.80
2022-11-05T03:52:34.878Z,37.20
2022-11-05T03:55:07.998Z,32.20
2022-11-05T03:57:44.211Z,38.20
2022-11-05T04:00:16.966Z,33.50
2022-11-05T04:02:49.017Z,36.60
2022-11-05T04:05:21.549Z,37.00
2022-11-05T04:08:19.359Z,39.10
2022-11-05T04:11:11.173Z,38.50
2022-11-05T04:13:43.036Z,37.90
2022-11-05T04:16:32.104Z,37.20
2022-11-05T04:19:04.102Z,36.90
2022-11-05T04:22:04.978Z,35.40
2022-11-05T04:24:36.940Z,32.50
2022-11-05T04:27:11.336Z,33.50
2022-11-05T04:30:00.420Z,35.30
2022-11-05T04:32:32.283Z,36.90
2022-11-05T04:35:04.110Z,35.60
2022-11-05T04:37:35.811Z,35.30
2022-11-05T04:40:09.168Z,36.50
2022-11-05T04:42:41.113Z,36.40
2022-11-05T04:45:12.916Z,39.70
2022-11-05T04:47:45.126Z,38.40
2022-11-05T04:50:17.064Z,35.70
2022-11-05T04:52:49.632Z,35.40
2022-11-05T04:55:21.985Z,35.60
2022-11-05T04:57:54.961Z,36.70
2022-11-05T05:00:27.626Z,38.10
2022-11-05T05:02:59.617Z,37.60
2022-11-05T05:05:32.143Z,38.70
2022-11-05T05:08:05.943Z,38.30
2022-11-05T05:10:37.720Z,37.60
2022-11-05T05:13:10.175Z,37.50
2022-11-05T05:15:42.402Z,40.40
2022-11-05T05:18:14.267Z,39.90
2022-11-05T05:21:03.781Z,38.90
2022-11-05T05:23:35.560Z,41.00
2022-11-05T05:26:07.738Z,42.10
2022-11-05T05:28:39.643Z,41.20
2022-11-05T05:31:11.361Z,45.50
2022-11-05T05:33:43.305Z,45.70
2022-11-05T05:36:15.205Z,42.30
2022-11-05T05:38:47.089Z,41.50
2022-11-05T05:41:19.421Z,40.20
2022-11-05T05:43:51.968Z,40.40
2022-11-05T05:46:23.842Z,40.90
2022-11-05T05:48:55.719Z,38.20
2022-11-05T05:51:27.646Z,38.20
2022-11-05T05:53:59.697Z,37.40
2022-11-05T05:56:31.867Z,39.30
2022-11-05T05:59:03.764Z,41.80
2022-11-05T06:01:35.984Z,41.20
2022-11-05T06:04:08.314Z,43.10
2022-11-05T06:06:40.155Z,39.20
2022-11-05T06:09:12.144Z,40.10
2022-11-05T06:11:44.146Z,36.30
2022-11-05T06:14:16.740Z,41.60
2022-11-05T06:16:48.470Z,36.90
2022-11-05T06:19:20.385Z,43.20
2022-11-05T06:21:52.162Z,40.80
2022-11-05T06:24:24.333Z,38.60
2022-11-05T06:26:56.064Z,43.40
2022-11-05T06:29:27.933Z,41.30
2022-11-05T06:31:59.946Z,44.20
2022-11-05T06:34:31.868Z,37.90
2022-11-05T06:37:03.792Z,41.40
2022-11-05T06:39:35.733Z,40.60
2022-11-05T06:42:23.109Z,40.70
2022-11-05T06:44:54.913Z,41.50
2022-11-05T06:47:26.800Z,42.80
2022-11-05T06:49:58.895Z,39.30
2022-11-05T06:52:31.408Z,44.30
2022-11-05T06:55:03.499Z,41.90
2022-11-05T06:57:38.139Z,46.00
2022-11-05T07:00:12.026Z,44.70
2022-11-05T07:02:43.930Z,45.50
2022-11-05T07:05:17.104Z,45.30
2022-11-05T07:07:48.997Z,43.50
2022-11-05T07:10:21.274Z,43.60
2022-11-05T07:12:53.058Z,43.70
2022-11-05T07:15:25.560Z,46.10
2022-11-05T07:18:01.423Z,45.10
2022-11-05T07:20:34.449Z,44.40
2022-11-05T07:23:08.748Z,43.40
2022-11-05T07:25:41.833Z,45.60
2022-11-05T07:28:14.702Z,39.90
2022-11-05T07:30:48.468Z,41.70
2022-11-05T07:33:20.406Z,41.30
2022-11-05T07:35:52.156Z,43.50
2022-11-05T07:38:23.967Z,37.90
2022-11-05T07:40:55.871Z,46.40
2022-11-05T07:43:27.753Z,43.10
2022-11-05T07:45:59.529Z,42.70
2022-11-05T07:48:31.739Z,41.00
2022-11-05T07:51:03.522Z,44.70
2022-11-05T07:53:35.557Z,43.90
2022-11-05T07:56:08.633Z,43.00
2022-11-05T07:58:40.475Z,43.20
2022-11-05T08:01:12.526Z,42.40
2022-11-05T08:03:44.637Z,42.90
2022-11-05T08:06:16.482Z,46.90
2022-11-05T08:08:48.405Z,46.60
2022-11-05T08:11:20.216Z,44.00
2022-11-05T08:13:52.106Z,48.90
2022-11-05T08:16:23.866Z,45.30
2022-11-05T08:18:57.778Z,44.40
2022-11-05T08:21:29.800Z,41.40
2022-11-05T08:24:01.682Z,43.00
2022-11-05T08:26:33.530Z,44.50
2022-11-05T08:29:05.283Z,43.80
2022-11-05T08:31:37.200Z,40.70
2022-11-05T08:34:09.200Z,45.90
2022-11-05T08:36:43.300Z,43.80
2022-11-05T08:39:17.069Z,45.00
2022-11-05T08:41:49.124Z,44.60
2022-11-05T08:44:21.039Z,46.80
2022-11-05T08:46:53.103Z,45.00
2022-11-05T08:49:25.062Z,45.60
2022-11-05T08:51:56.803Z,44.70
2022-11-05T08:54:28.978Z,42.60
2022-11-05T08:57:00.821Z,47.50
2022-11-05T08:59:32.729Z,46.00
2022-11-05T09:02:04.795Z,42.20
2022-11-05T09:04:36.650Z,41.40
2022-11-05T09:07:09.011Z,42.10
2022-11-05T09:09:40.940Z,40.40
2022-11-05T09:12:13.366Z,44.20
2022-11-05T09:14:45.263Z,42.40
2022-11-05T09:17:22.049Z,40.40
2022-11-05T09:19:54.010Z,43.30
2022-11-05T09:22:25.930Z,48.00
2022-11-05T09:24:57.866Z,44.70
2022-11-05T09:27:29.901Z,46.30
2022-11-05T09:30:01.942Z,43.00
2022-11-05T09:32:34.916Z,40.40
2022-11-05T09:35:08.382Z,41.40
2022-11-05T09:37:40.433Z,41.40
2022-11-05T09:40:16.779Z,41.10
2022-11-05T09:42:52.476Z,40.80
2022-11-05T09:45:28.515Z,44.20
2022-11-05T09:48:06.367Z,42.80
2022-11-05T09:50:42.034Z,45.20
2022-11-05T09:53:16.742Z,45.80
2022-11-05T09:55:52.649Z,44.20
2022-11-05T09:58:32.636Z,45.20
2022-11-05T10:01:07.561Z,46.70
2022-11-05T10:03:46.900Z,47.30
2022-11-05T10:06:22.868Z,47.60
2022-11-05T10:09:02.647Z,41.20
2022-11-05T10:11:39.881Z,39.70
2022-11-05T10:14:19.374Z,40.90
2022-11-05T10:16:56.115Z,38.60
2022-11-05T10:19:36.940Z,38.30
2022-11-05T10:22:14.000Z,33.00
2022-11-05T10:24:47.509Z,28.30
2022-11-05T10:27:23.348Z,26.20
2022-11-05T10:29:55.719Z,21.00
2022-11-05T10:32:32.128Z,20.60
2022-11-05T10:35:07.923Z,19.40
2022-11-05T10:37:41.171Z,20.50
2022-11-05T10:40:20.965Z,19.00
2022-11-05T10:43:02.057Z,20.20
2022-11-05T10:45:41.556Z,18.90
2022-11-05T10:48:30.890Z,19.60
2022-11-05T10:51:03.885Z,22.00
2022-11-05T10:53:39.601Z,22.10
2022-11-05T10:56:32.258Z,21.60
2022-11-05T10:59:09.358Z,21.70
2022-11-05T11:01:43.973Z,22.90
2022-11-05T11:04:24.999Z,23.60
2022-11-05T11:06:58.483Z,22.30
2022-11-05T11:09:32.720Z,22.90
2022-11-05T11:12:13.523Z,21.50
2022-11-05T11:15:00.605Z,22.50
2022-11-05T11:17:33.813Z,21.00
2022-11-05T11:20:27.304Z,22.20
2022-11-05T11:23:13.047Z,25.30
2022-11-05T11:25:51.609Z,23.90
2022-11-05T11:31:04.682Z,20.30
2022-11-05T11:33:38.910Z,19.10
2022-11-05T11:36:13.721Z,19.40
2022-11-05T11:38:45.751Z,23.50
2022-11-05T11:41:29.163Z,20.20
2022-11-05T11:44:07.754Z,18.90
2022-11-05T11:46:40.322Z,20.50
2022-11-05T11:49:34.042Z,21.10
2022-11-05T11:52:15.661Z,21.70
2022-11-05T11:54:47.548Z,17.40
2022-11-05T11:57:25.596Z,19.70
2022-11-05T12:00:09.137Z,23.00
2022-11-05T12:03:01.604Z,21.20
2022-11-05T12:05:41.966Z,21.90
2022-11-05T12:08:31.776Z,20.50
2022-11-05T12:11:09.451Z,17.20
2022-11-05T12:13:58.116Z,17.60
2022-11-05T12:16:46.356Z,18.90
2022-11-05T12:19:32.579Z,17.50
2022-11-05T12:22:17.983Z,18.00
2022-11-05T12:25:03.310Z,15.80
2022-11-05T12:27:49.232Z,15.60
2022-11-05T12:30:23.759Z,22.70
2022-11-05T12:33:24.286Z,23.70
2022-11-05T12:36:09.962Z,24.70
2022-11-05T12:39:00.681Z,20.10
2022-11-05T12:41:39.269Z,23.60
2022-11-05T12:44:33.192Z,16.80
2022-11-05T12:47:16.386Z,13.30
2022-11-05T12:50:01.114Z,14.20
2022-11-05T12:53:13.789Z,15.80
2022-11-05T12:55:49.670Z,17.20
2022-11-05T12:58:28.231Z,16.40
2022-11-05T13:01:04.052Z,17.10
2022-11-05T13:03:43.593Z,15.00
2022-11-05T13:06:18.315Z,14.30
2022-11-05T13:08:59.317Z,14.80
2022-11-05T13:11:36.038Z,14.80
2022-11-05T13:14:14.709Z,13.20
2022-11-05T13:16:50.597Z,13.00
2022-11-05T13:19:25.966Z,15.70
2022-11-05T13:22:08.032Z,14.70
2022-11-05T13:24:48.538Z,14.70
2022-11-05T13:27:46.037Z,13.50
2022-11-05T13:30:21.138Z,34.70
2022-11-05T13:32:59.720Z,15.40
2022-11-05T13:35:37.005Z,14.50
2022-11-05T13:38:33.601Z,30.60
2022-11-05T13:41:20.130Z,27.90
2022-11-05T13:44:06.365Z,18.90
2022-11-05T13:46:52.376Z,36.50
2022-11-05T13:50:03.506Z,90.20
2022-11-05T13:52:56.986Z,175.70
2022-11-05T13:55:53.588Z,28.60
2022-11-05T13:58:58.798Z,26.90
2022-11-05T14:01:46.429Z,24.30
2022-11-05T14:04:32.924Z,23.00
2022-11-05T14:07:14.216Z,21.20
2022-11-05T14:09:47.509Z,25.90
2022-11-05T14:12:25.840Z,23.80
2022-11-05T14:17:55.487Z,23.10
2022-11-05T14:20:57.215Z,22.00
2022-11-05T14:23:42.373Z,25.30
2022-11-05T14:26:25.851Z,32.60
2022-11-05T14:29:25.926Z,27.80
2022-11-05T14:32:09.329Z,25.40
2022-11-05T14:34:56.275Z,29.00
2022-11-05T14:37:34.492Z,29.30
2022-11-05T14:40:31.684Z,28.50
2022-11-05T14:43:06.027Z,23.40
2022-11-05T14:45:41.110Z,25.90
2022-11-05T14:48:31.915Z,23.70
2022-11-05T14:51:17.398Z,22.60
2022-11-05T14:53:50.033Z,18.70
2022-11-05T14:56:22.122Z,18.90
2022-11-05T14:59:32.190Z,22.10
2022-11-05T15:02:10.353Z,19.10
2022-11-05T15:04:45.516Z,20.50
2022-11-05T15:07:36.199Z,22.90
2022-11-05T15:10:13.478Z,28.40
2022-11-05T15:12:48.886Z,41.80
2022-11-05T15:15:24.788Z,34.60
2022-11-05T15:18:05.593Z,29.50
2022-11-05T15:20:42.706Z,35.50
2022-11-05T15:23:18.633Z,33.70
2022-11-05T15:26:03.466Z,46.30
2022-11-05T15:28:38.793Z,49.40
2022-11-05T15:31:27.211Z,49.80
2022-11-05T15:34:17.839Z,48.40
2022-11-05T15:36:55.930Z,56.30
2022-11-05T15:39:39.374Z,52.60
2022-11-05T15:42:16.354Z,45.30
2022-11-05T15:44:50.614Z,44.20
2022-11-05T15:47:24.988Z,42.10
2022-11-05T15:49:58.430Z,39.20
2022-11-05T15:52:37.258Z,45.80
2022-11-05T15:55:22.756Z,38.60
2022-11-05T15:58:04.337Z,34.00
2022-11-05T16:00:38.257Z,35.30
2022-11-05T16:03:19.762Z,36.00
2022-11-05T16:05:51.620Z,40.00
2022-11-05T16:08:26.594Z,46.20
2022-11-05T16:11:00.402Z,41.90
2022-11-05T16:13:35.439Z,53.00
2022-11-05T16:16:23.800Z,78.20
2022-11-05T16:18:55.606Z,153.00
2022-11-05T16:21:27.381Z,86.50
2022-11-05T16:24:01.341Z,166.00
2022-11-05T16:29:34.413Z,92.30
2022-11-05T16:32:18.516Z,96.50
2022-11-05T16:34:52.464Z,93.20
2022-11-05T16:37:30.367Z,83.70
2022-11-05T16:40:03.729Z,65.00
2022-11-05T16:42:42.783Z,70.40
2022-11-05T16:45:16.592Z,142.60
2022-11-05T16:47:49.015Z,81.40
2022-11-05T16:50:27.005Z,101.10
2022-11-05T16:52:58.917Z,68.10
2022-11-05T16:55:32.816Z,53.60
2022-11-05T16:58:05.049Z,48.40
2022-11-05T17:00:36.893Z,45.40
2022-11-05T17:03:08.774Z,39.20
2022-11-05T17:05:40.580Z,42.50
2022-11-05T17:08:12.687Z,36.70
2022-11-05T17:10:44.813Z,34.70
2022-11-05T17:13:18.587Z,36.20
2022-11-05T17:15:51.695Z,35.70
2022-11-05T17:18:23.870Z,34.40
2022-11-05T17:20:57.479Z,31.70
2022-11-05T17:23:30.095Z,30.10
2022-11-05T17:26:06.644Z,29.40
2022-11-05T17:28:38.937Z,37.60
2022-11-05T17:31:13.371Z,33.30
2022-11-05T17:33:45.539Z,34.40
2022-11-05T17:36:17.940Z,35.40
2022-11-05T17:38:49.690Z,38.60
2022-11-05T17:41:23.546Z,44.40
2022-11-05T17:43:57.613Z,42.80
2022-11-05T17:46:29.461Z,44.50
2022-11-05T17:49:01.178Z,46.40
2022-11-05T17:51:34.675Z,41.50
2022-11-05T17:54:07.629Z,37.60
2022-11-05T17:56:44.736Z,44.90
2022-11-05T17:59:16.784Z,48.60
2022-11-05T18:01:48.700Z,44.50
2022-11-05T18:04:20.520Z,32.60
2022-11-05T18:06:52.317Z,36.50
2022-11-05T18:09:24.093Z,43.50
2022-11-05T18:11:56.252Z,60.90
2022-11-05T18:14:28.109Z,49.80
2022-11-05T18:17:00.408Z,50.70
2022-11-05T18:19:32.437Z,48.30
2022-11-05T18:22:04.224Z,41.60
2022-11-05T18:24:36.750Z,41.50
2022-11-05T18:27:08.521Z,38.40
2022-11-05T18:29:40.536Z,45.10
2022-11-05T18:32:12.616Z,48.40
2022-11-05T18:34:44.635Z,57.50
2022-11-05T18:37:16.465Z,53.00
2022-11-05T18:39:51.358Z,50.00
2022-11-05T18:42:23.487Z,50.00
2022-11-05T18:44:55.280Z,44.00
2022-11-05T18:47:27.099Z,42.50
2022-11-05T18:49:58.948Z,36.10
2022-11-05T18:52:34.083Z,40.50
2022-11-05T18:55:06.469Z,39.70
2022-11-05T18:57:39.262Z,36.60
2022-11-05T19:00:13.187Z,37.20
2022-11-05T19:02:45.183Z,36.30
2022-11-05T19:05:32.686Z,33.70
2022-11-05T19:08:04.955Z,35.30
2022-11-05T19:10:36.701Z,35.10
2022-11-05T19:13:08.423Z,33.50
2022-11-05T19:15:44.340Z,36.20
2022-11-05T19:18:16.168Z,34.60
2022-11-05T19:20:47.971Z,36.60
2022-11-05T19:23:19.841Z,34.00
2022-11-05T19:25:51.689Z,33.00
2022-11-05T19:28:23.579Z,30.60
2022-11-05T19:30:55.325Z,29.30
2022-11-05T19:33:27.107Z,28.60
2022-11-05T19:35:59.770Z,26.50
2022-11-05T19:38:31.646Z,26.30
2022-11-05T19:41:08.076Z,25.00
2022-11-05T19:43:41.314Z,24.50
2022-11-05T19:46:15.379Z,30.80
2022-11-05T19:48:47.779Z,25.20
2022-11-05T19:51:22.453Z,26.10
2022-11-05T19:53:55.425Z,22.30
2022-11-05T19:56:29.741Z,24.80
2022-11-05T19:59:03.166Z,21.60
2022-11-05T20:01:35.709Z,20.50
2022-11-05T20:04:08.071Z,21.10
2022-11-05T20:06:40.825Z,21.30
2022-11-05T20:09:21.661Z,20.30
2022-11-05T20:11:56.604Z,19.60
2022-11-05T20:14:29.897Z,19.10
2022-11-05T20:17:02.482Z,24.10
2022-11-05T20:19:35.455Z,19.60
2022-11-05T20:22:07.264Z,19.20
2022-11-05T20:24:41.224Z,16.90
2022-11-05T20:27:13.055Z,18.70
2022-11-05T20:29:44.932Z,18.20
2022-11-05T20:32:16.760Z,16.90
2022-11-05T20:34:50.425Z,17.60
2022-11-05T20:37:22.266Z,18.30
2022-11-05T20:39:54.281Z,18.20
2022-11-05T20:42:26.171Z,23.00
2022-11-05T20:44:59.092Z,23.60
2022-11-05T20:47:31.676Z,25.20
2022-11-05T20:50:04.547Z,25.30
2022-11-05T20:52:36.830Z,21.20
2022-11-05T20:55:10.191Z,22.60
2022-11-05T20:57:42.054Z,20.60
2022-11-05T21:00:16.032Z,16.40
2022-11-05T21:02:47.914Z,19.40
2022-11-05T21:05:20.289Z,16.40
2022-11-05T21:07:52.444Z,17.30
2022-11-05T21:10:24.491Z,16.80
2022-11-05T21:12:56.524Z,18.30
2022-11-05T21:15:28.310Z,17.90
2022-11-05T21:18:00.426Z,18.20
2022-11-05T21:20:32.359Z,22.30
2022-11-05T21:23:04.094Z,19.40
2022-11-05T21:25:38.172Z,19.70
2022-11-05T21:28:11.023Z,18.60
2022-11-05T21:30:46.101Z,15.90
2022-11-05T21:33:19.784Z,16.60
2022-11-05T21:35:51.667Z,17.70
2022-11-05T21:38:23.559Z,17.90
2022-11-05T21:40:55.319Z,16.60
2022-11-05T21:43:27.145Z,16.40
2022-11-05T21:46:03.638Z,17.50
2022-11-05T21:48:35.478Z,18.40
2022-11-05T21:51:25.009Z,30.20
2022-11-05T21:54:14.694Z,25.40
2022-11-05T21:57:08.306Z,26.60
2022-11-05T21:59:52.316Z,25.10
2022-11-05T22:02:28.575Z,26.10
2022-11-05T22:05:02.270Z,28.20
2022-11-05T22:07:36.621Z,23.50
2022-11-05T22:10:16.395Z,21.50
2022-11-05T22:12:50.916Z,18.80
2022-11-05T22:15:23.379Z,20.10
2022-11-05T22:17:55.155Z,18.80
2022-11-05T22:20:26.932Z,18.00
2022-11-05T22:22:58.827Z,18.20
2022-11-05T22:25:30.616Z,19.50
2022-11-05T22:28:02.458Z,16.50
2022-11-05T22:30:36.753Z,19.20
2022-11-05T22:33:09.050Z,19.20
2022-11-05T22:35:42.675Z,19.60
2022-11-05T22:38:14.711Z,20.90
2022-11-05T22:40:46.736Z,23.00
2022-11-05T22:43:18.469Z,21.90
2022-11-05T22:45:52.581Z,18.80
2022-11-05T22:48:24.530Z,19.10
2022-11-05T22:50:56.334Z,20.20
2022-11-05T22:53:28.114Z,21.40
2022-11-05T22:55:59.884Z,19.90
2022-11-05T22:58:32.070Z,21.10
2022-11-05T23:01:05.541Z,18.90
2022-11-05T23:03:37.682Z,20.10
2022-11-05T23:06:36.211Z,17.70
2022-11-05T23:09:30.531Z,17.30
2022-11-05T23:12:02.861Z,17.20
2022-11-05T23:14:35.593Z,19.40
2022-11-05T23:17:30.046Z,17.60
2022-11-05T23:20:24.740Z,17.10
2022-11-05T23:23:13.819Z,18.90
2022-11-05T23:25:46.037Z,17.30
2022-11-05T23:28:21.686Z,19.00
2022-11-05T23:31:07.453Z,19.60
2022-11-05T23:33:39.309Z,19.00
2022-11-05T23:36:43.559Z,20.10
2022-11-05T23:39:15.440Z,19.60
2022-11-05T23:42:19.272Z,19.60
2022-11-05T23:45:13.124Z,20.00
2022-11-05T23:48:04.433Z,19.60
2022-11-05T23:50:39.813Z,18.30
2022-11-05T23:53:11.983Z,20.80
2022-11-05T23:55:44.491Z,21.50
2022-11-05T23:58:16.979Z,19.50
